Check out our new BloomSky Weather System.

Active alerts

Galveston, TX
  Details for Galveston, TX Coastal Flood Advisory  +2 additional alerts
Houston, TX
  Details for Houston, TX Flash Flood Watch
Fort Bend, TX
  Details for Fort Bend, TX Flash Flood Watch


Thunder radar  blitzortung!


Rain radar more information rain snow radar


Visit our other weather sites:

Template documentation
and downloads

And another site



Weather Underground History page Text

Daily Summary for January 8, 2018 Units:  Both    English   Metric
« Previous Day
Next Day »
Daily Weekly Monthly Yearly Custom
  High: Low: Average:
Temperature: TemperatureF °F /  -17.8 °C 43.7 °F /  6.5 °C 55.3 °F /  12.9 °C
Dew Point: DewpointF °F /  -17.8 °C 41.4 °F /  5.2 °C 47.6 °F /  8.7 °C
Humidity: Humidity % 51 % 77 %
Wind Speed: WindSpeedMPH mph /  0 km/h - 2.4 mph /  3.9 km/h
Wind Gust: WindSpeedGustMPH mph /  0 km/h - -
Wind:- - WNW
Pressure: PressureIn in /  0 hPa 29.87 in /  1011.4 hPa -
Precipitation: 0.00 in /  0 mm    
Historical Graphs
 
 
Tabular Data for January 8, 2018
Time Temperature Dew Point Pressure Wind Wind Speed Wind Gust Humidity Rainfall Rate (Hourly)
TemperatureF °F /  -17.8 °C DewpointF °F /  -17.8 °C PressureIn in /  0 hPa Calm     Humidity % HourlyPrecipIn in /  0 mm
00:30 63.0 °F /  17.2 °C 62.4 °F /  16.9 °C 29.88 in /  1011.7 hPa WSW 1.0 mph /  1.6 km/h 7.0 mph /  11.3 km/h 98 % 0.00 in /  0 mm
00:37 62.8 °F /  17.1 °C 62.2 °F /  16.8 °C 29.88 in /  1011.7 hPa Calm   8.0 mph /  12.9 km/h 98 % 0.00 in /  0 mm
00:45 62.4 °F /  16.9 °C 61.9 °F /  16.6 °C 29.88 in /  1011.7 hPa Calm   4.0 mph /  6.4 km/h 98 % 0.00 in /  0 mm
00:52 62.1 °F /  16.7 °C 61.5 °F /  16.4 °C 29.88 in /  1011.7 hPa SW 1.0 mph /  1.6 km/h 4.0 mph /  6.4 km/h 98 % 0.00 in /  0 mm
01:27 61.2 °F /  16.2 °C 60.6 °F /  15.9 °C 29.88 in /  1011.7 hPa Calm   4.0 mph /  6.4 km/h 98 % 0.00 in /  0 mm
01:32 61.2 °F /  16.2 °C 60.6 °F /  15.9 °C 29.88 in /  1011.7 hPa West 1.0 mph /  1.6 km/h 4.0 mph /  6.4 km/h 98 % 0.00 in /  0 mm
01:49 60.8 °F /  16 °C 60.3 °F /  15.7 °C 29.87 in /  1011.4 hPa Calm   5.0 mph /  8 km/h 98 % 0.00 in /  0 mm
02:13 60.6 °F /  15.9 °C 60.1 °F /  15.6 °C 29.88 in /  1011.7 hPa ENE 2.0 mph /  3.2 km/h 8.0 mph /  12.9 km/h 98 % 0.00 in /  0 mm
02:27 60.3 °F /  15.7 °C 59.7 °F /  15.4 °C 29.89 in /  1012.1 hPa WSW 2.0 mph /  3.2 km/h 11.0 mph /  17.7 km/h 98 % 0.00 in /  0 mm
02:32 60.1 °F /  15.6 °C 59.2 °F /  15.1 °C 29.89 in /  1012.1 hPa North 1.0 mph /  1.6 km/h 11.0 mph /  17.7 km/h 97 % 0.00 in /  0 mm
02:42 59.9 °F /  15.5 °C 59.0 °F /  15 °C 29.90 in /  1012.4 hPa NNW 1.0 mph /  1.6 km/h 8.0 mph /  12.9 km/h 97 % 0.00 in /  0 mm
02:56 59.7 °F /  15.4 °C 58.8 °F /  14.9 °C 29.91 in /  1012.8 hPa WNW 1.0 mph /  1.6 km/h 8.0 mph /  12.9 km/h 97 % 0.00 in /  0 mm
02:58 59.7 °F /  15.4 °C 58.8 °F /  14.9 °C 29.91 in /  1012.8 hPa West 1.0 mph /  1.6 km/h 8.0 mph /  12.9 km/h 97 % 0.00 in /  0 mm
03:03 59.5 °F /  15.3 °C 58.5 °F /  14.7 °C 29.91 in /  1012.8 hPa NW 1.0 mph /  1.6 km/h 8.0 mph /  12.9 km/h 96 % 0.00 in /  0 mm
03:13 59.4 °F /  15.2 °C 58.3 °F /  14.6 °C 29.92 in /  1013.1 hPa North 3.0 mph /  4.8 km/h 8.0 mph /  12.9 km/h 96 % 0.00 in /  0 mm
03:19 59.2 °F /  15.1 °C 58.1 °F /  14.5 °C 29.92 in /  1013.1 hPa NNW 3.0 mph /  4.8 km/h 8.0 mph /  12.9 km/h 96 % 0.00 in /  0 mm
03:20 59.2 °F /  15.1 °C 58.1 °F /  14.5 °C 29.92 in /  1013.1 hPa NNW 2.0 mph /  3.2 km/h 7.0 mph /  11.3 km/h 96 % 0.00 in /  0 mm
03:26 59.0 °F /  15 °C 57.9 °F /  14.4 °C 29.93 in /  1013.4 hPa NNW 5.0 mph /  8 km/h 7.0 mph /  11.3 km/h 96 % 0.00 in /  0 mm
03:31 59.2 °F /  15.1 °C 58.1 °F /  14.5 °C 29.93 in /  1013.4 hPa NW 2.0 mph /  3.2 km/h 7.0 mph /  11.3 km/h 96 % 0.00 in /  0 mm
03:35 59.2 °F /  15.1 °C 58.1 °F /  14.5 °C 29.93 in /  1013.4 hPa NNW 4.0 mph /  6.4 km/h 6.0 mph /  9.7 km/h 96 % 0.00 in /  0 mm
03:41 59.2 °F /  15.1 °C 58.1 °F /  14.5 °C 29.93 in /  1013.4 hPa North 2.0 mph /  3.2 km/h 6.0 mph /  9.7 km/h 96 % 0.00 in /  0 mm
03:46 59.0 °F /  15 °C 57.6 °F /  14.2 °C 29.93 in /  1013.4 hPa NNW 4.0 mph /  6.4 km/h 6.0 mph /  9.7 km/h 95 % 0.00 in /  0 mm
03:47 59.0 °F /  15 °C 57.6 °F /  14.2 °C 29.93 in /  1013.4 hPa NNW 3.0 mph /  4.8 km/h 6.0 mph /  9.7 km/h 95 % 0.00 in /  0 mm
03:52 59.0 °F /  15 °C 57.6 °F /  14.2 °C 29.93 in /  1013.4 hPa NNW 5.0 mph /  8 km/h 6.0 mph /  9.7 km/h 95 % 0.00 in /  0 mm
03:57 58.8 °F /  14.9 °C 57.4 °F /  14.1 °C 29.93 in /  1013.4 hPa NW 2.0 mph /  3.2 km/h 6.0 mph /  9.7 km/h 95 % 0.00 in /  0 mm
04:02 58.8 °F /  14.9 °C 57.4 °F /  14.1 °C 29.93 in /  1013.4 hPa WNW 1.0 mph /  1.6 km/h 6.0 mph /  9.7 km/h 95 % 0.00 in /  0 mm
04:07 58.8 °F /  14.9 °C 57.4 °F /  14.1 °C 29.93 in /  1013.4 hPa NW 3.0 mph /  4.8 km/h 10.0 mph /  16.1 km/h 95 % 0.00 in /  0 mm
04:12 58.6 °F /  14.8 °C 57.2 °F /  14 °C 29.93 in /  1013.4 hPa NW 2.0 mph /  3.2 km/h 10.0 mph /  16.1 km/h 95 % 0.00 in /  0 mm
04:17 58.6 °F /  14.8 °C 57.2 °F /  14 °C 29.93 in /  1013.4 hPa NNW 3.0 mph /  4.8 km/h 10.0 mph /  16.1 km/h 95 % 0.00 in /  0 mm
04:22 58.6 °F /  14.8 °C 57.2 °F /  14 °C 29.93 in /  1013.4 hPa NNW 2.0 mph /  3.2 km/h 7.0 mph /  11.3 km/h 95 % 0.00 in /  0 mm
04:27 58.6 °F /  14.8 °C 56.8 °F /  13.8 °C 29.93 in /  1013.4 hPa NNW 2.0 mph /  3.2 km/h 8.0 mph /  12.9 km/h 94 % 0.00 in /  0 mm
04:32 58.5 °F /  14.7 °C 56.7 °F /  13.7 °C 29.93 in /  1013.4 hPa WNW 4.0 mph /  6.4 km/h 8.0 mph /  12.9 km/h 94 % 0.00 in /  0 mm
04:38 58.5 °F /  14.7 °C 56.7 °F /  13.7 °C 29.93 in /  1013.4 hPa North 1.0 mph /  1.6 km/h 9.0 mph /  14.5 km/h 94 % 0.00 in /  0 mm
04:44 58.5 °F /  14.7 °C 56.7 °F /  13.7 °C 29.94 in /  1013.8 hPa NW 5.0 mph /  8 km/h 10.0 mph /  16.1 km/h 94 % 0.00 in /  0 mm
04:48 58.5 °F /  14.7 °C 56.7 °F /  13.7 °C 29.94 in /  1013.8 hPa NNW 3.0 mph /  4.8 km/h 10.0 mph /  16.1 km/h 94 % 0.00 in /  0 mm
04:54 58.5 °F /  14.7 °C 56.7 °F /  13.7 °C 29.94 in /  1013.8 hPa NNW 4.0 mph /  6.4 km/h 10.0 mph /  16.1 km/h 94 % 0.00 in /  0 mm
04:59 58.3 °F /  14.6 °C 56.5 °F /  13.6 °C 29.94 in /  1013.8 hPa NNW 4.0 mph /  6.4 km/h 10.0 mph /  16.1 km/h 94 % 0.00 in /  0 mm
05:05 58.3 °F /  14.6 °C 56.3 °F /  13.5 °C 29.94 in /  1013.8 hPa NNW 3.0 mph /  4.8 km/h 9.0 mph /  14.5 km/h 93 % 0.00 in /  0 mm
05:10 58.1 °F /  14.5 °C 56.1 °F /  13.4 °C 29.94 in /  1013.8 hPa NW 7.0 mph /  11.3 km/h 10.0 mph /  16.1 km/h 93 % 0.00 in /  0 mm
05:12 58.1 °F /  14.5 °C 56.1 °F /  13.4 °C 29.95 in /  1014.1 hPa NNW 1.0 mph /  1.6 km/h 10.0 mph /  16.1 km/h 93 % 0.00 in /  0 mm
05:17 57.9 °F /  14.4 °C 55.9 °F /  13.3 °C 29.96 in /  1014.4 hPa NW 2.0 mph /  3.2 km/h 10.0 mph /  16.1 km/h 93 % 0.00 in /  0 mm
05:22 57.9 °F /  14.4 °C 55.9 °F /  13.3 °C 29.96 in /  1014.4 hPa NE 1.0 mph /  1.6 km/h 9.0 mph /  14.5 km/h 93 % 0.00 in /  0 mm
05:27 57.7 °F /  14.3 °C 55.8 °F /  13.2 °C 29.96 in /  1014.4 hPa North 1.0 mph /  1.6 km/h 9.0 mph /  14.5 km/h 93 % 0.00 in /  0 mm
05:32 57.7 °F /  14.3 °C 55.8 °F /  13.2 °C 29.96 in /  1014.4 hPa NW 2.0 mph /  3.2 km/h 9.0 mph /  14.5 km/h 93 % 0.00 in /  0 mm
05:37 57.4 °F /  14.1 °C 55.4 °F /  13 °C 29.97 in /  1014.8 hPa NW 1.0 mph /  1.6 km/h 10.0 mph /  16.1 km/h 93 % 0.00 in /  0 mm
05:42 57.2 °F /  14 °C 55.2 °F /  12.9 °C 29.97 in /  1014.8 hPa NNW 6.0 mph /  9.7 km/h 10.0 mph /  16.1 km/h 93 % 0.00 in /  0 mm
05:47 57.0 °F /  13.9 °C 55.2 °F /  12.9 °C 29.97 in /  1014.8 hPa NNW 2.0 mph /  3.2 km/h 10.0 mph /  16.1 km/h 94 % 0.00 in /  0 mm
05:52 57.0 °F /  13.9 °C 55.2 °F /  12.9 °C 29.97 in /  1014.8 hPa NW 3.0 mph /  4.8 km/h 9.0 mph /  14.5 km/h 94 % 0.00 in /  0 mm
05:58 56.8 °F /  13.8 °C 55.2 °F /  12.9 °C 29.97 in /  1014.8 hPa NNW 2.0 mph /  3.2 km/h 7.0 mph /  11.3 km/h 94 % 0.00 in /  0 mm
06:03 56.8 °F /  13.8 °C 55.2 °F /  12.9 °C 29.97 in /  1014.8 hPa Calm   7.0 mph /  11.3 km/h 94 % 0.00 in /  0 mm
06:09 56.8 °F /  13.8 °C 55.2 °F /  12.9 °C 29.98 in /  1015.1 hPa NW 5.0 mph /  8 km/h 6.0 mph /  9.7 km/h 94 % 0.00 in /  0 mm
06:14 57.0 °F /  13.9 °C 55.0 °F /  12.8 °C 29.98 in /  1015.1 hPa NW 6.0 mph /  9.7 km/h 9.0 mph /  14.5 km/h 93 % 0.00 in /  0 mm
06:19 57.0 °F /  13.9 °C 55.0 °F /  12.8 °C 29.98 in /  1015.1 hPa NW 1.0 mph /  1.6 km/h 9.0 mph /  14.5 km/h 93 % 0.00 in /  0 mm
06:24 57.0 °F /  13.9 °C 55.0 °F /  12.8 °C 29.98 in /  1015.1 hPa NW 3.0 mph /  4.8 km/h 9.0 mph /  14.5 km/h 93 % 0.00 in /  0 mm
06:31 57.0 °F /  13.9 °C 55.0 °F /  12.8 °C 29.98 in /  1015.1 hPa NW 2.0 mph /  3.2 km/h 7.0 mph /  11.3 km/h 93 % 0.00 in /  0 mm
06:32 57.0 °F /  13.9 °C 55.0 °F /  12.8 °C 29.99 in /  1015.5 hPa NNE 3.0 mph /  4.8 km/h 7.0 mph /  11.3 km/h 93 % 0.00 in /  0 mm
06:37 57.0 °F /  13.9 °C 55.0 °F /  12.8 °C 29.99 in /  1015.5 hPa NNW 2.0 mph /  3.2 km/h 7.0 mph /  11.3 km/h 93 % 0.00 in /  0 mm
06:42 56.8 °F /  13.8 °C 54.9 °F /  12.7 °C 29.99 in /  1015.5 hPa WNW 2.0 mph /  3.2 km/h 7.0 mph /  11.3 km/h 93 % 0.00 in /  0 mm
06:52 57.0 °F /  13.9 °C 54.7 °F /  12.6 °C 29.99 in /  1015.5 hPa NNW 4.0 mph /  6.4 km/h 11.0 mph /  17.7 km/h 92 % 0.00 in /  0 mm
06:57 57.0 °F /  13.9 °C 54.7 °F /  12.6 °C 29.99 in /  1015.5 hPa NW 3.0 mph /  4.8 km/h 11.0 mph /  17.7 km/h 92 % 0.00 in /  0 mm
07:07 57.2 °F /  14 °C 54.3 °F /  12.4 °C 30.00 in /  1015.8 hPa NW 8.0 mph /  12.9 km/h 15.0 mph /  24.1 km/h 90 % 0.00 in /  0 mm
07:13 57.4 °F /  14.1 °C 54.1 °F /  12.3 °C 30.00 in /  1015.8 hPa NW 6.0 mph /  9.7 km/h 15.0 mph /  24.1 km/h 89 % 0.00 in /  0 mm
07:19 57.4 °F /  14.1 °C 54.1 °F /  12.3 °C 30.00 in /  1015.8 hPa NW 4.0 mph /  6.4 km/h 15.0 mph /  24.1 km/h 89 % 0.00 in /  0 mm
07:25 57.4 °F /  14.1 °C 54.1 °F /  12.3 °C 30.00 in /  1015.8 hPa NNW 3.0 mph /  4.8 km/h 14.0 mph /  22.5 km/h 89 % 0.00 in /  0 mm
07:27 57.4 °F /  14.1 °C 54.1 °F /  12.3 °C 30.00 in /  1015.8 hPa NW 4.0 mph /  6.4 km/h 12.0 mph /  19.3 km/h 89 % 0.00 in /  0 mm
07:32 57.2 °F /  14 °C 54.0 °F /  12.2 °C 30.01 in /  1016.1 hPa NW 3.0 mph /  4.8 km/h 12.0 mph /  19.3 km/h 89 % 0.00 in /  0 mm
07:37 57.0 °F /  13.9 °C 54.1 °F /  12.3 °C 30.01 in /  1016.1 hPa NW 4.0 mph /  6.4 km/h 10.0 mph /  16.1 km/h 90 % 0.00 in /  0 mm
07:43 57.0 °F /  13.9 °C 54.1 °F /  12.3 °C 30.01 in /  1016.1 hPa NW 5.0 mph /  8 km/h 9.0 mph /  14.5 km/h 90 % 0.00 in /  0 mm
07:44 57.0 °F /  13.9 °C 54.1 °F /  12.3 °C 30.01 in /  1016.1 hPa NNW 2.0 mph /  3.2 km/h 9.0 mph /  14.5 km/h 90 % 0.00 in /  0 mm
07:50 57.0 °F /  13.9 °C 54.1 °F /  12.3 °C 30.02 in /  1016.5 hPa NNW 6.0 mph /  9.7 km/h 9.0 mph /  14.5 km/h 90 % 0.00 in /  0 mm
07:56 57.0 °F /  13.9 °C 54.5 °F /  12.5 °C 30.02 in /  1016.5 hPa WNW 3.0 mph /  4.8 km/h 10.0 mph /  16.1 km/h 91 % 0.00 in /  0 mm
07:59 57.0 °F /  13.9 °C 54.5 °F /  12.5 °C 30.03 in /  1016.8 hPa NNW 5.0 mph /  8 km/h 10.0 mph /  16.1 km/h 91 % 0.00 in /  0 mm
08:05 57.0 °F /  13.9 °C 54.5 °F /  12.5 °C 30.03 in /  1016.8 hPa NW 3.0 mph /  4.8 km/h 10.0 mph /  16.1 km/h 91 % 0.00 in /  0 mm
08:08 56.8 °F /  13.8 °C 54.3 °F /  12.4 °C 30.03 in /  1016.8 hPa NW 3.0 mph /  4.8 km/h 8.0 mph /  12.9 km/h 91 % 0.00 in /  0 mm
08:13 56.8 °F /  13.8 °C 54.3 °F /  12.4 °C 30.04 in /  1017.2 hPa NNW 3.0 mph /  4.8 km/h 8.0 mph /  12.9 km/h 91 % 0.00 in /  0 mm
08:19 56.7 °F /  13.7 °C 53.4 °F /  11.9 °C 30.04 in /  1017.2 hPa North 3.0 mph /  4.8 km/h 9.0 mph /  14.5 km/h 89 % 0.00 in /  0 mm
08:26 56.7 °F /  13.7 °C 53.1 °F /  11.7 °C 30.04 in /  1017.2 hPa North 6.0 mph /  9.7 km/h 12.0 mph /  19.3 km/h 88 % 0.00 in /  0 mm
08:27 56.7 °F /  13.7 °C 53.1 °F /  11.7 °C 30.04 in /  1017.2 hPa NNE 7.0 mph /  11.3 km/h 12.0 mph /  19.3 km/h 88 % 0.00 in /  0 mm
08:29 56.5 °F /  13.6 °C 52.9 °F /  11.6 °C 30.04 in /  1017.2 hPa NNW 5.0 mph /  8 km/h 12.0 mph /  19.3 km/h 88 % 0.00 in /  0 mm
08:36 56.7 °F /  13.7 °C 52.9 °F /  11.6 °C 30.04 in /  1017.2 hPa WNW 6.0 mph /  9.7 km/h 14.0 mph /  22.5 km/h 87 % 0.00 in /  0 mm
08:41 56.8 °F /  13.8 °C 52.7 °F /  11.5 °C 30.05 in /  1017.5 hPa NW 6.0 mph /  9.7 km/h 14.0 mph /  22.5 km/h 86 % 0.00 in /  0 mm
08:46 57.0 °F /  13.9 °C 52.9 °F /  11.6 °C 30.05 in /  1017.5 hPa NW 5.0 mph /  8 km/h 15.0 mph /  24.1 km/h 86 % 0.00 in /  0 mm
08:48 57.0 °F /  13.9 °C 52.5 °F /  11.4 °C 30.05 in /  1017.5 hPa NW 7.0 mph /  11.3 km/h 15.0 mph /  24.1 km/h 85 % 0.00 in /  0 mm
08:54 56.8 °F /  13.8 °C 52.3 °F /  11.3 °C 30.05 in /  1017.5 hPa WNW 3.0 mph /  4.8 km/h 15.0 mph /  24.1 km/h 85 % 0.00 in /  0 mm
08:55 56.8 °F /  13.8 °C 52.3 °F /  11.3 °C 30.05 in /  1017.5 hPa NW 7.0 mph /  11.3 km/h 15.0 mph /  24.1 km/h 85 % 0.00 in /  0 mm
09:00 56.8 °F /  13.8 °C 52.3 °F /  11.3 °C 30.06 in /  1017.8 hPa North 7.0 mph /  11.3 km/h 15.0 mph /  24.1 km/h 85 % 0.00 in /  0 mm
09:01 56.8 °F /  13.8 °C 52.7 °F /  11.5 °C 30.06 in /  1017.8 hPa NNE 3.0 mph /  4.8 km/h 12.0 mph /  19.3 km/h 86 % 0.00 in /  0 mm
09:06 57.0 °F /  13.9 °C 52.5 °F /  11.4 °C 30.06 in /  1017.8 hPa WNW 2.0 mph /  3.2 km/h 12.0 mph /  19.3 km/h 85 % 0.00 in /  0 mm
09:12 57.4 °F /  14.1 °C 52.5 °F /  11.4 °C 30.06 in /  1017.8 hPa NNW 3.0 mph /  4.8 km/h 12.0 mph /  19.3 km/h 84 % 0.00 in /  0 mm
09:17 57.6 °F /  14.2 °C 52.7 °F /  11.5 °C 30.06 in /  1017.8 hPa NNW 5.0 mph /  8 km/h 11.0 mph /  17.7 km/h 84 % 0.00 in /  0 mm
09:22 57.4 °F /  14.1 °C 52.3 °F /  11.3 °C 30.06 in /  1017.8 hPa NW 2.0 mph /  3.2 km/h 14.0 mph /  22.5 km/h 83 % 0.00 in /  0 mm
09:29 57.4 °F /  14.1 °C 52.3 °F /  11.3 °C 30.07 in /  1018.2 hPa ENE 7.0 mph /  11.3 km/h 14.0 mph /  22.5 km/h 83 % 0.00 in /  0 mm
09:31 57.4 °F /  14.1 °C 52.0 °F /  11.1 °C 30.07 in /  1018.2 hPa NNW 9.0 mph /  14.5 km/h 14.0 mph /  22.5 km/h 82 % 0.00 in /  0 mm
09:36 57.7 °F /  14.3 °C 52.7 °F /  11.5 °C 30.08 in /  1018.5 hPa WNW 5.0 mph /  8 km/h 11.0 mph /  17.7 km/h 83 % 0.00 in /  0 mm
09:39 57.7 °F /  14.3 °C 52.0 °F /  11.1 °C 30.08 in /  1018.5 hPa NW 4.0 mph /  6.4 km/h 11.0 mph /  17.7 km/h 81 % 0.00 in /  0 mm
09:45 57.4 °F /  14.1 °C 51.6 °F /  10.9 °C 30.09 in /  1018.8 hPa NW 10.0 mph /  16.1 km/h 12.0 mph /  19.3 km/h 81 % 0.00 in /  0 mm
09:52 57.6 °F /  14.2 °C 51.8 °F /  11 °C 30.09 in /  1018.8 hPa NW 6.0 mph /  9.7 km/h 19.0 mph /  30.6 km/h 81 % 0.00 in /  0 mm
09:58 58.1 °F /  14.5 °C 52.3 °F /  11.3 °C 30.09 in /  1018.8 hPa North 8.0 mph /  12.9 km/h 19.0 mph /  30.6 km/h 81 % 0.00 in /  0 mm
10:04 57.9 °F /  14.4 °C 51.8 °F /  11 °C 30.09 in /  1018.8 hPa North 8.0 mph /  12.9 km/h 13.0 mph /  20.9 km/h 80 % 0.00 in /  0 mm
10:10 58.3 °F /  14.6 °C 52.2 °F /  11.2 °C 30.10 in /  1019.2 hPa NNW 8.0 mph /  12.9 km/h 14.0 mph /  22.5 km/h 80 % 0.00 in /  0 mm
10:11 58.3 °F /  14.6 °C 51.8 °F /  11 °C 30.10 in /  1019.2 hPa NNW 6.0 mph /  9.7 km/h 14.0 mph /  22.5 km/h 79 % 0.00 in /  0 mm
10:16 58.3 °F /  14.6 °C 52.2 °F /  11.2 °C 30.10 in /  1019.2 hPa NNE 1.0 mph /  1.6 km/h 14.0 mph /  22.5 km/h 80 % 0.00 in /  0 mm
10:21 58.3 °F /  14.6 °C 51.8 °F /  11 °C 30.10 in /  1019.2 hPa NNE 12.0 mph /  19.3 km/h 12.0 mph /  19.3 km/h 79 % 0.00 in /  0 mm
10:26 57.6 °F /  14.2 °C 50.7 °F /  10.4 °C 30.10 in /  1019.2 hPa NW 11.0 mph /  17.7 km/h 16.0 mph /  25.7 km/h 78 % 0.00 in /  0 mm
10:32 57.6 °F /  14.2 °C 50.7 °F /  10.4 °C 30.09 in /  1018.8 hPa NNW 7.0 mph /  11.3 km/h 16.0 mph /  25.7 km/h 78 % 0.00 in /  0 mm
10:37 57.6 °F /  14.2 °C 50.7 °F /  10.4 °C 30.09 in /  1018.8 hPa NW 3.0 mph /  4.8 km/h 16.0 mph /  25.7 km/h 78 % 0.00 in /  0 mm
10:39 57.6 °F /  14.2 °C 50.7 °F /  10.4 °C 30.09 in /  1018.8 hPa NNW 5.0 mph /  8 km/h 16.0 mph /  25.7 km/h 78 % 0.00 in /  0 mm
10:44 58.1 °F /  14.5 °C 51.3 °F /  10.7 °C 30.09 in /  1018.8 hPa NW 3.0 mph /  4.8 km/h 16.0 mph /  25.7 km/h 78 % 0.00 in /  0 mm
10:53 58.3 °F /  14.6 °C 50.4 °F /  10.2 °C 30.09 in /  1018.8 hPa NW 4.0 mph /  6.4 km/h 12.0 mph /  19.3 km/h 75 % 0.00 in /  0 mm
10:59 58.1 °F /  14.5 °C 49.8 °F /  9.9 °C 30.09 in /  1018.8 hPa NNW 4.0 mph /  6.4 km/h 15.0 mph /  24.1 km/h 74 % 0.00 in /  0 mm
11:04 58.5 °F /  14.7 °C 50.2 °F /  10.1 °C 30.08 in /  1018.5 hPa WNW 3.0 mph /  4.8 km/h 15.0 mph /  24.1 km/h 74 % 0.00 in /  0 mm
11:09 59.4 °F /  15.2 °C 50.4 °F /  10.2 °C 30.08 in /  1018.5 hPa North 7.0 mph /  11.3 km/h 15.0 mph /  24.1 km/h 72 % 0.00 in /  0 mm
11:15 59.0 °F /  15 °C 49.3 °F /  9.6 °C 30.07 in /  1018.2 hPa North 7.0 mph /  11.3 km/h 12.0 mph /  19.3 km/h 70 % 0.00 in /  0 mm
11:20 59.4 °F /  15.2 °C 49.6 °F /  9.8 °C 30.07 in /  1018.2 hPa NNE 11.0 mph /  17.7 km/h 15.0 mph /  24.1 km/h 70 % 0.00 in /  0 mm
11:25 59.5 °F /  15.3 °C 49.8 °F /  9.9 °C 30.07 in /  1018.2 hPa NW 6.0 mph /  9.7 km/h 15.0 mph /  24.1 km/h 70 % 0.00 in /  0 mm
11:30 59.4 °F /  15.2 °C 50.0 °F /  10 °C 30.07 in /  1018.2 hPa NNW 5.0 mph /  8 km/h 15.0 mph /  24.1 km/h 71 % 0.00 in /  0 mm
11:34 59.7 °F /  15.4 °C 50.7 °F /  10.4 °C 30.07 in /  1018.2 hPa NW 3.0 mph /  4.8 km/h 15.0 mph /  24.1 km/h 72 % 0.00 in /  0 mm
11:36 59.9 °F /  15.5 °C 50.5 °F /  10.3 °C 30.07 in /  1018.2 hPa NNW 5.0 mph /  8 km/h 12.0 mph /  19.3 km/h 71 % 0.00 in /  0 mm
11:41 59.7 °F /  15.4 °C 49.1 °F /  9.5 °C 30.06 in /  1017.8 hPa NW 6.0 mph /  9.7 km/h 14.0 mph /  22.5 km/h 68 % 0.00 in /  0 mm
11:46 59.5 °F /  15.3 °C 48.6 °F /  9.2 °C 30.06 in /  1017.8 hPa WNW 4.0 mph /  6.4 km/h 14.0 mph /  22.5 km/h 67 % 0.00 in /  0 mm
11:48 59.5 °F /  15.3 °C 48.9 °F /  9.4 °C 30.06 in /  1017.8 hPa NNW 7.0 mph /  11.3 km/h 14.0 mph /  22.5 km/h 68 % 0.00 in /  0 mm
11:54 59.5 °F /  15.3 °C 48.6 °F /  9.2 °C 30.06 in /  1017.8 hPa NNW 5.0 mph /  8 km/h 14.0 mph /  22.5 km/h 67 % 0.00 in /  0 mm
11:59 59.7 °F /  15.4 °C 48.7 °F /  9.3 °C 30.06 in /  1017.8 hPa NW 5.0 mph /  8 km/h 13.0 mph /  20.9 km/h 67 % 0.00 in /  0 mm
12:02 59.9 °F /  15.5 °C 48.6 °F /  9.2 °C 30.06 in /  1017.8 hPa North 4.0 mph /  6.4 km/h 13.0 mph /  20.9 km/h 66 % 0.00 in /  0 mm
12:12 60.6 °F /  15.9 °C 49.6 °F /  9.8 °C 30.06 in /  1017.8 hPa North 4.0 mph /  6.4 km/h 12.0 mph /  19.3 km/h 67 % 0.00 in /  0 mm
12:17 61.3 °F /  16.3 °C 49.8 °F /  9.9 °C 30.05 in /  1017.5 hPa NW 6.0 mph /  9.7 km/h 11.0 mph /  17.7 km/h 66 % 0.00 in /  0 mm
12:22 61.2 °F /  16.2 °C 48.4 °F /  9.1 °C 30.05 in /  1017.5 hPa NW 7.0 mph /  11.3 km/h 11.0 mph /  17.7 km/h 63 % 0.00 in /  0 mm
12:27 61.2 °F /  16.2 °C 48.4 °F /  9.1 °C 30.05 in /  1017.5 hPa NW 5.0 mph /  8 km/h 11.0 mph /  17.7 km/h 63 % 0.00 in /  0 mm
12:32 61.9 °F /  16.6 °C 48.7 °F /  9.3 °C 30.04 in /  1017.2 hPa NNW 6.0 mph /  9.7 km/h 11.0 mph /  17.7 km/h 62 % 0.00 in /  0 mm
12:37 62.1 °F /  16.7 °C 48.0 °F /  8.9 °C 30.04 in /  1017.2 hPa NW 4.0 mph /  6.4 km/h 13.0 mph /  20.9 km/h 60 % 0.00 in /  0 mm
12:40 62.1 °F /  16.7 °C 48.4 °F /  9.1 °C 30.04 in /  1017.2 hPa NW 4.0 mph /  6.4 km/h 13.0 mph /  20.9 km/h 61 % 0.00 in /  0 mm
12:45 61.7 °F /  16.5 °C 47.7 °F /  8.7 °C 30.03 in /  1016.8 hPa NW 5.0 mph /  8 km/h 13.0 mph /  20.9 km/h 60 % 0.00 in /  0 mm
12:47 61.9 °F /  16.6 °C 48.7 °F /  9.3 °C 30.03 in /  1016.8 hPa WNW 6.0 mph /  9.7 km/h 13.0 mph /  20.9 km/h 62 % 0.00 in /  0 mm
12:52 62.2 °F /  16.8 °C 47.3 °F /  8.5 °C 30.03 in /  1016.8 hPa NNW 5.0 mph /  8 km/h 12.0 mph /  19.3 km/h 58 % 0.00 in /  0 mm
12:53 62.2 °F /  16.8 °C 47.3 °F /  8.5 °C 30.03 in /  1016.8 hPa NW 4.0 mph /  6.4 km/h 12.0 mph /  19.3 km/h 58 % 0.00 in /  0 mm
12:58 62.4 °F /  16.9 °C 47.8 °F /  8.8 °C 30.03 in /  1016.8 hPa NNW 5.0 mph /  8 km/h 11.0 mph /  17.7 km/h 59 % 0.00 in /  0 mm
13:08 62.1 °F /  16.7 °C 47.1 °F /  8.4 °C 30.02 in /  1016.5 hPa NW 4.0 mph /  6.4 km/h 11.0 mph /  17.7 km/h 58 % 0.00 in /  0 mm
13:13 62.4 °F /  16.9 °C 47.5 °F /  8.6 °C 30.02 in /  1016.5 hPa NNW 5.0 mph /  8 km/h 11.0 mph /  17.7 km/h 58 % 0.00 in /  0 mm
13:17 62.4 °F /  16.9 °C 46.9 °F /  8.3 °C 30.02 in /  1016.5 hPa NNW 8.0 mph /  12.9 km/h 11.0 mph /  17.7 km/h 57 % 0.00 in /  0 mm
13:22 62.6 °F /  17 °C 47.1 °F /  8.4 °C 30.01 in /  1016.1 hPa NNE 7.0 mph /  11.3 km/h 13.0 mph /  20.9 km/h 57 % 0.00 in /  0 mm
13:23 62.6 °F /  17 °C 47.1 °F /  8.4 °C 30.01 in /  1016.1 hPa NW 6.0 mph /  9.7 km/h 13.0 mph /  20.9 km/h 57 % 0.00 in /  0 mm
13:26 62.4 °F /  16.9 °C 47.5 °F /  8.6 °C 30.01 in /  1016.1 hPa NNW 6.0 mph /  9.7 km/h 13.0 mph /  20.9 km/h 58 % 0.00 in /  0 mm
13:31 62.4 °F /  16.9 °C 47.8 °F /  8.8 °C 30.01 in /  1016.1 hPa WNW 4.0 mph /  6.4 km/h 13.0 mph /  20.9 km/h 59 % 0.00 in /  0 mm
13:36 63.0 °F /  17.2 °C 48.0 °F /  8.9 °C 30.01 in /  1016.1 hPa NW 3.0 mph /  4.8 km/h 10.0 mph /  16.1 km/h 58 % 0.00 in /  0 mm
13:40 63.3 °F /  17.4 °C 47.8 °F /  8.8 °C 30.01 in /  1016.1 hPa WNW 3.0 mph /  4.8 km/h 10.0 mph /  16.1 km/h 57 % 0.00 in /  0 mm
13:45 63.5 °F /  17.5 °C 47.5 °F /  8.6 °C 30.01 in /  1016.1 hPa NW 8.0 mph /  12.9 km/h 10.0 mph /  16.1 km/h 56 % 0.00 in /  0 mm
13:49 63.7 °F /  17.6 °C 46.8 °F /  8.2 °C 30.01 in /  1016.1 hPa WNW 4.0 mph /  6.4 km/h 10.0 mph /  16.1 km/h 54 % 0.00 in /  0 mm
13:55 63.7 °F /  17.6 °C 47.3 °F /  8.5 °C 30.01 in /  1016.1 hPa Calm   11.0 mph /  17.7 km/h 55 % 0.00 in /  0 mm
14:00 63.7 °F /  17.6 °C 47.7 °F /  8.7 °C 30.01 in /  1016.1 hPa NW 4.0 mph /  6.4 km/h 13.0 mph /  20.9 km/h 56 % 0.00 in /  0 mm
14:05 63.9 °F /  17.7 °C 47.3 °F /  8.5 °C 30.01 in /  1016.1 hPa North 6.0 mph /  9.7 km/h 13.0 mph /  20.9 km/h 55 % 0.00 in /  0 mm
14:10 64.0 °F /  17.8 °C 47.1 °F /  8.4 °C 30.01 in /  1016.1 hPa NW 2.0 mph /  3.2 km/h 13.0 mph /  20.9 km/h 54 % 0.00 in /  0 mm
14:16 64.4 °F /  18 °C 47.5 °F /  8.6 °C 30.01 in /  1016.1 hPa NW 8.0 mph /  12.9 km/h 12.0 mph /  19.3 km/h 54 % 0.00 in /  0 mm
14:22 64.2 °F /  17.9 °C 47.3 °F /  8.5 °C 30.01 in /  1016.1 hPa North 8.0 mph /  12.9 km/h 14.0 mph /  22.5 km/h 54 % 0.00 in /  0 mm
14:27 64.2 °F /  17.9 °C 46.8 °F /  8.2 °C 30.01 in /  1016.1 hPa NW 3.0 mph /  4.8 km/h 14.0 mph /  22.5 km/h 53 % 0.00 in /  0 mm
14:32 64.6 °F /  18.1 °C 47.1 °F /  8.4 °C 30.01 in /  1016.1 hPa NNW 11.0 mph /  17.7 km/h 14.0 mph /  22.5 km/h 53 % 0.00 in /  0 mm
14:38 64.2 °F /  17.9 °C 46.2 °F /  7.9 °C 30.01 in /  1016.1 hPa NNW 3.0 mph /  4.8 km/h 13.0 mph /  20.9 km/h 52 % 0.00 in /  0 mm
14:47 64.8 °F /  18.2 °C 47.3 °F /  8.5 °C 30.02 in /  1016.5 hPa NW 8.0 mph /  12.9 km/h 13.0 mph /  20.9 km/h 53 % 0.00 in /  0 mm
15:01 64.6 °F /  18.1 °C 46.6 °F /  8.1 °C 30.02 in /  1016.5 hPa NNW 3.0 mph /  4.8 km/h 14.0 mph /  22.5 km/h 52 % 0.00 in /  0 mm
15:09 64.8 °F /  18.2 °C 46.2 °F /  7.9 °C 30.02 in /  1016.5 hPa NW 2.0 mph /  3.2 km/h 14.0 mph /  22.5 km/h 51 % 0.00 in /  0 mm
15:14 64.6 °F /  18.1 °C 46.6 °F /  8.1 °C 30.02 in /  1016.5 hPa NW 4.0 mph /  6.4 km/h 14.0 mph /  22.5 km/h 52 % 0.00 in /  0 mm
15:22 64.6 °F /  18.1 °C 46.6 °F /  8.1 °C 30.02 in /  1016.5 hPa NNW 5.0 mph /  8 km/h 14.0 mph /  22.5 km/h 52 % 0.00 in /  0 mm
15:27 64.6 °F /  18.1 °C 46.6 °F /  8.1 °C 30.02 in /  1016.5 hPa NNE 12.0 mph /  19.3 km/h 14.0 mph /  22.5 km/h 52 % 0.00 in /  0 mm
15:33 64.4 °F /  18 °C 46.4 °F /  8 °C 30.02 in /  1016.5 hPa NNW 9.0 mph /  14.5 km/h 14.0 mph /  22.5 km/h 52 % 0.00 in /  0 mm
15:38 64.4 °F /  18 °C 45.9 °F /  7.7 °C 30.03 in /  1016.8 hPa NW 7.0 mph /  11.3 km/h 16.0 mph /  25.7 km/h 51 % 0.00 in /  0 mm
15:43 64.2 °F /  17.9 °C 45.7 °F /  7.6 °C 30.03 in /  1016.8 hPa NNW 8.0 mph /  12.9 km/h 16.0 mph /  25.7 km/h 51 % 0.00 in /  0 mm
15:46 64.2 °F /  17.9 °C 46.2 °F /  7.9 °C 30.03 in /  1016.8 hPa North 5.0 mph /  8 km/h 16.0 mph /  25.7 km/h 52 % 0.00 in /  0 mm
15:51 64.0 °F /  17.8 °C 46.0 °F /  7.8 °C 30.03 in /  1016.8 hPa NNW 3.0 mph /  4.8 km/h 15.0 mph /  24.1 km/h 52 % 0.00 in /  0 mm
15:53 64.2 °F /  17.9 °C 46.2 °F /  7.9 °C 30.03 in /  1016.8 hPa NW 6.0 mph /  9.7 km/h 15.0 mph /  24.1 km/h 52 % 0.00 in /  0 mm
16:00 64.2 °F /  17.9 °C 46.8 °F /  8.2 °C 30.03 in /  1016.8 hPa NW 3.0 mph /  4.8 km/h 14.0 mph /  22.5 km/h 53 % 0.00 in /  0 mm
16:09 64.2 °F /  17.9 °C 46.2 °F /  7.9 °C 30.03 in /  1016.8 hPa NNW 6.0 mph /  9.7 km/h 14.0 mph /  22.5 km/h 52 % 0.00 in /  0 mm
16:14 63.9 °F /  17.7 °C 45.9 °F /  7.7 °C 30.04 in /  1017.2 hPa WNW 9.0 mph /  14.5 km/h 13.0 mph /  20.9 km/h 52 % 0.00 in /  0 mm
16:19 63.7 °F /  17.6 °C 46.2 °F /  7.9 °C 30.04 in /  1017.2 hPa North 5.0 mph /  8 km/h 13.0 mph /  20.9 km/h 53 % 0.00 in /  0 mm
16:21 63.7 °F /  17.6 °C 46.8 °F /  8.2 °C 30.04 in /  1017.2 hPa NNW 5.0 mph /  8 km/h 13.0 mph /  20.9 km/h 54 % 0.00 in /  0 mm
16:26 63.9 °F /  17.7 °C 46.9 °F /  8.3 °C 30.04 in /  1017.2 hPa WNW 2.0 mph /  3.2 km/h 12.0 mph /  19.3 km/h 54 % 0.00 in /  0 mm
16:32 63.9 °F /  17.7 °C 46.4 °F /  8 °C 30.04 in /  1017.2 hPa NNW 5.0 mph /  8 km/h 9.0 mph /  14.5 km/h 53 % 0.00 in /  0 mm
16:37 63.3 °F /  17.4 °C 45.9 °F /  7.7 °C 30.04 in /  1017.2 hPa NNE 4.0 mph /  6.4 km/h 15.0 mph /  24.1 km/h 53 % 0.00 in /  0 mm
16:42 63.1 °F /  17.3 °C 46.2 °F /  7.9 °C 30.04 in /  1017.2 hPa WNW 3.0 mph /  4.8 km/h 15.0 mph /  24.1 km/h 54 % 0.00 in /  0 mm
16:43 63.1 °F /  17.3 °C 46.2 °F /  7.9 °C 30.04 in /  1017.2 hPa NNW 5.0 mph /  8 km/h 15.0 mph /  24.1 km/h 54 % 0.00 in /  0 mm
16:54 63.0 °F /  17.2 °C 46.6 °F /  8.1 °C 30.04 in /  1017.2 hPa NW 4.0 mph /  6.4 km/h 10.0 mph /  16.1 km/h 55 % 0.00 in /  0 mm
16:55 63.0 °F /  17.2 °C 46.6 °F /  8.1 °C 30.04 in /  1017.2 hPa NW 4.0 mph /  6.4 km/h 10.0 mph /  16.1 km/h 55 % 0.00 in /  0 mm
16:56 63.0 °F /  17.2 °C 46.6 °F /  8.1 °C 30.04 in /  1017.2 hPa North 4.0 mph /  6.4 km/h 8.0 mph /  12.9 km/h 55 % 0.00 in /  0 mm
16:57 62.8 °F /  17.1 °C 46.4 °F /  8 °C 30.04 in /  1017.2 hPa NW 5.0 mph /  8 km/h 8.0 mph /  12.9 km/h 55 % 0.00 in /  0 mm
16:58 62.8 °F /  17.1 °C 46.4 °F /  8 °C 30.04 in /  1017.2 hPa NW 3.0 mph /  4.8 km/h 8.0 mph /  12.9 km/h 55 % 0.00 in /  0 mm
16:59 62.8 °F /  17.1 °C 46.4 °F /  8 °C 30.04 in /  1017.2 hPa NNW 6.0 mph /  9.7 km/h 8.0 mph /  12.9 km/h 55 % 0.00 in /  0 mm
17:00 62.8 °F /  17.1 °C 46.4 °F /  8 °C 30.04 in /  1017.2 hPa North 7.0 mph /  11.3 km/h 8.0 mph /  12.9 km/h 55 % 0.00 in /  0 mm
17:01 62.6 °F /  17 °C 46.2 °F /  7.9 °C 30.04 in /  1017.2 hPa NNW 10.0 mph /  16.1 km/h 10.0 mph /  16.1 km/h 55 % 0.00 in /  0 mm
17:04 62.4 °F /  16.9 °C 46.6 °F /  8.1 °C 30.05 in /  1017.5 hPa NW 6.0 mph /  9.7 km/h 10.0 mph /  16.1 km/h 56 % 0.00 in /  0 mm
17:07 62.2 °F /  16.8 °C 46.4 °F /  8 °C 30.05 in /  1017.5 hPa NNW 2.0 mph /  3.2 km/h 12.0 mph /  19.3 km/h 56 % 0.00 in /  0 mm
17:08 62.2 °F /  16.8 °C 46.4 °F /  8 °C 30.05 in /  1017.5 hPa NNW 2.0 mph /  3.2 km/h 12.0 mph /  19.3 km/h 56 % 0.00 in /  0 mm
17:09 62.2 °F /  16.8 °C 46.4 °F /  8 °C 30.05 in /  1017.5 hPa NW 3.0 mph /  4.8 km/h 12.0 mph /  19.3 km/h 56 % 0.00 in /  0 mm
17:11 62.1 °F /  16.7 °C 46.6 °F /  8.1 °C 30.05 in /  1017.5 hPa NNW 2.0 mph /  3.2 km/h 12.0 mph /  19.3 km/h 57 % 0.00 in /  0 mm
17:14 62.1 °F /  16.7 °C 46.6 °F /  8.1 °C 30.05 in /  1017.5 hPa NW 2.0 mph /  3.2 km/h 12.0 mph /  19.3 km/h 57 % 0.00 in /  0 mm
17:16 61.9 °F /  16.6 °C 46.4 °F /  8 °C 30.06 in /  1017.8 hPa NW 3.0 mph /  4.8 km/h 12.0 mph /  19.3 km/h 57 % 0.00 in /  0 mm
17:17 61.9 °F /  16.6 °C 46.4 °F /  8 °C 30.06 in /  1017.8 hPa NNW 2.0 mph /  3.2 km/h 12.0 mph /  19.3 km/h 57 % 0.00 in /  0 mm
17:18 61.7 °F /  16.5 °C 46.4 °F /  8 °C 30.05 in /  1017.5 hPa NNW 2.0 mph /  3.2 km/h 12.0 mph /  19.3 km/h 57 % 0.00 in /  0 mm
17:19 61.7 °F /  16.5 °C 46.4 °F /  8 °C 30.05 in /  1017.5 hPa NNE 2.0 mph /  3.2 km/h 12.0 mph /  19.3 km/h 57 % 0.00 in /  0 mm
17:22 61.5 °F /  16.4 °C 46.6 °F /  8.1 °C 30.06 in /  1017.8 hPa WNW 3.0 mph /  4.8 km/h 7.0 mph /  11.3 km/h 58 % 0.00 in /  0 mm
17:26 61.3 °F /  16.3 °C 46.0 °F /  7.8 °C 30.06 in /  1017.8 hPa NW 5.0 mph /  8 km/h 12.0 mph /  19.3 km/h 57 % 0.00 in /  0 mm
17:27 61.3 °F /  16.3 °C 46.4 °F /  8 °C 30.06 in /  1017.8 hPa NNW 3.0 mph /  4.8 km/h 12.0 mph /  19.3 km/h 58 % 0.00 in /  0 mm
17:31 61.2 °F /  16.2 °C 46.2 °F /  7.9 °C 30.06 in /  1017.8 hPa NW 3.0 mph /  4.8 km/h 12.0 mph /  19.3 km/h 58 % 0.00 in /  0 mm
17:32 61.2 °F /  16.2 °C 46.2 °F /  7.9 °C 30.06 in /  1017.8 hPa WNW 4.0 mph /  6.4 km/h 12.0 mph /  19.3 km/h 58 % 0.00 in /  0 mm
17:37 61.0 °F /  16.1 °C 46.0 °F /  7.8 °C 30.06 in /  1017.8 hPa NW 5.0 mph /  8 km/h 12.0 mph /  19.3 km/h 58 % 0.00 in /  0 mm
17:38 61.0 °F /  16.1 °C 46.0 °F /  7.8 °C 30.06 in /  1017.8 hPa WNW 2.0 mph /  3.2 km/h 12.0 mph /  19.3 km/h 58 % 0.00 in /  0 mm
17:45 60.6 °F /  15.9 °C 46.2 °F /  7.9 °C 30.06 in /  1017.8 hPa NW 2.0 mph /  3.2 km/h 7.0 mph /  11.3 km/h 59 % 0.00 in /  0 mm
17:51 60.3 °F /  15.7 °C 46.4 °F /  8 °C 30.07 in /  1018.2 hPa NW 1.0 mph /  1.6 km/h 8.0 mph /  12.9 km/h 60 % 0.00 in /  0 mm
17:52 60.3 °F /  15.7 °C 46.4 °F /  8 °C 30.07 in /  1018.2 hPa WNW 2.0 mph /  3.2 km/h 8.0 mph /  12.9 km/h 60 % 0.00 in /  0 mm
17:53 60.1 °F /  15.6 °C 46.2 °F /  7.9 °C 30.07 in /  1018.2 hPa NW 2.0 mph /  3.2 km/h 8.0 mph /  12.9 km/h 60 % 0.00 in /  0 mm
17:55 60.1 °F /  15.6 °C 46.2 °F /  7.9 °C 30.07 in /  1018.2 hPa NW 4.0 mph /  6.4 km/h 8.0 mph /  12.9 km/h 60 % 0.00 in /  0 mm
17:57 59.9 °F /  15.5 °C 46.0 °F /  7.8 °C 30.07 in /  1018.2 hPa NW 3.0 mph /  4.8 km/h 8.0 mph /  12.9 km/h 60 % 0.00 in /  0 mm
18:01 59.5 °F /  15.3 °C 46.0 °F /  7.8 °C 30.08 in /  1018.5 hPa NNW 2.0 mph /  3.2 km/h 8.0 mph /  12.9 km/h 61 % 0.00 in /  0 mm
18:03 59.5 °F /  15.3 °C 46.0 °F /  7.8 °C 30.08 in /  1018.5 hPa North 5.0 mph /  8 km/h 8.0 mph /  12.9 km/h 61 % 0.00 in /  0 mm
18:07 59.4 °F /  15.2 °C 46.4 °F /  8 °C 30.08 in /  1018.5 hPa NNW 1.0 mph /  1.6 km/h 6.0 mph /  9.7 km/h 62 % 0.00 in /  0 mm
18:08 59.4 °F /  15.2 °C 46.4 °F /  8 °C 30.08 in /  1018.5 hPa North 2.0 mph /  3.2 km/h 6.0 mph /  9.7 km/h 62 % 0.00 in /  0 mm
18:13 59.2 °F /  15.1 °C 46.2 °F /  7.9 °C 30.08 in /  1018.5 hPa NW 4.0 mph /  6.4 km/h 7.0 mph /  11.3 km/h 62 % 0.00 in /  0 mm
18:14 59.2 °F /  15.1 °C 46.2 °F /  7.9 °C 30.08 in /  1018.5 hPa NW 3.0 mph /  4.8 km/h 7.0 mph /  11.3 km/h 62 % 0.00 in /  0 mm
18:15 59.2 °F /  15.1 °C 46.2 °F /  7.9 °C 30.08 in /  1018.5 hPa NNW 5.0 mph /  8 km/h 7.0 mph /  11.3 km/h 62 % 0.00 in /  0 mm
18:16 59.2 °F /  15.1 °C 46.2 °F /  7.9 °C 30.08 in /  1018.5 hPa NW 3.0 mph /  4.8 km/h 7.0 mph /  11.3 km/h 62 % 0.00 in /  0 mm
18:17 59.0 °F /  15 °C 46.0 °F /  7.8 °C 30.08 in /  1018.5 hPa NW 4.0 mph /  6.4 km/h 7.0 mph /  11.3 km/h 62 % 0.00 in /  0 mm
18:20 58.8 °F /  14.9 °C 45.9 °F /  7.7 °C 30.08 in /  1018.5 hPa WNW 2.0 mph /  3.2 km/h 7.0 mph /  11.3 km/h 62 % 0.00 in /  0 mm
18:21 58.8 °F /  14.9 °C 46.2 °F /  7.9 °C 30.08 in /  1018.5 hPa NNW 2.0 mph /  3.2 km/h 7.0 mph /  11.3 km/h 63 % 0.00 in /  0 mm
18:22 58.8 °F /  14.9 °C 46.2 °F /  7.9 °C 30.08 in /  1018.5 hPa NW 2.0 mph /  3.2 km/h 7.0 mph /  11.3 km/h 63 % 0.00 in /  0 mm
18:26 58.6 °F /  14.8 °C 46.0 °F /  7.8 °C 30.08 in /  1018.5 hPa Calm   5.0 mph /  8 km/h 63 % 0.00 in /  0 mm
18:30 58.5 °F /  14.7 °C 45.9 °F /  7.7 °C 30.09 in /  1018.8 hPa NW 5.0 mph /  8 km/h 5.0 mph /  8 km/h 63 % 0.00 in /  0 mm
18:32 58.5 °F /  14.7 °C 45.9 °F /  7.7 °C 30.09 in /  1018.8 hPa NW 4.0 mph /  6.4 km/h 6.0 mph /  9.7 km/h 63 % 0.00 in /  0 mm
18:37 58.5 °F /  14.7 °C 45.9 °F /  7.7 °C 30.09 in /  1018.8 hPa NW 3.0 mph /  4.8 km/h 7.0 mph /  11.3 km/h 63 % 0.00 in /  0 mm
18:38 58.5 °F /  14.7 °C 45.9 °F /  7.7 °C 30.09 in /  1018.8 hPa NNW 2.0 mph /  3.2 km/h 7.0 mph /  11.3 km/h 63 % 0.00 in /  0 mm
18:39 58.5 °F /  14.7 °C 45.9 °F /  7.7 °C 30.09 in /  1018.8 hPa WNW 4.0 mph /  6.4 km/h 7.0 mph /  11.3 km/h 63 % 0.00 in /  0 mm
18:40 58.5 °F /  14.7 °C 45.9 °F /  7.7 °C 30.09 in /  1018.8 hPa WNW 3.0 mph /  4.8 km/h 7.0 mph /  11.3 km/h 63 % 0.00 in /  0 mm
18:41 58.5 °F /  14.7 °C 45.9 °F /  7.7 °C 30.09 in /  1018.8 hPa NW 4.0 mph /  6.4 km/h 7.0 mph /  11.3 km/h 63 % 0.00 in /  0 mm
18:42 58.5 °F /  14.7 °C 45.9 °F /  7.7 °C 30.09 in /  1018.8 hPa NW 4.0 mph /  6.4 km/h 7.0 mph /  11.3 km/h 63 % 0.00 in /  0 mm
18:43 58.5 °F /  14.7 °C 45.9 °F /  7.7 °C 30.09 in /  1018.8 hPa NW 2.0 mph /  3.2 km/h 7.0 mph /  11.3 km/h 63 % 0.00 in /  0 mm
18:45 58.3 °F /  14.6 °C 46.2 °F /  7.9 °C 30.09 in /  1018.8 hPa NNW 2.0 mph /  3.2 km/h 7.0 mph /  11.3 km/h 64 % 0.00 in /  0 mm
18:47 58.3 °F /  14.6 °C 46.2 °F /  7.9 °C 30.09 in /  1018.8 hPa NW 1.0 mph /  1.6 km/h 7.0 mph /  11.3 km/h 64 % 0.00 in /  0 mm
18:49 58.3 °F /  14.6 °C 46.2 °F /  7.9 °C 30.09 in /  1018.8 hPa NW 4.0 mph /  6.4 km/h 7.0 mph /  11.3 km/h 64 % 0.00 in /  0 mm
18:52 58.1 °F /  14.5 °C 46.0 °F /  7.8 °C 30.09 in /  1018.8 hPa NW 3.0 mph /  4.8 km/h 7.0 mph /  11.3 km/h 64 % 0.00 in /  0 mm
18:56 57.9 °F /  14.4 °C 45.9 °F /  7.7 °C 30.09 in /  1018.8 hPa NW 4.0 mph /  6.4 km/h 7.0 mph /  11.3 km/h 64 % 0.00 in /  0 mm
18:59 57.7 °F /  14.3 °C 45.7 °F /  7.6 °C 30.09 in /  1018.8 hPa NW 2.0 mph /  3.2 km/h 7.0 mph /  11.3 km/h 64 % 0.00 in /  0 mm
19:00 57.7 °F /  14.3 °C 46.0 °F /  7.8 °C 30.09 in /  1018.8 hPa NW 1.0 mph /  1.6 km/h 7.0 mph /  11.3 km/h 65 % 0.00 in /  0 mm
19:01 57.7 °F /  14.3 °C 46.0 °F /  7.8 °C 30.09 in /  1018.8 hPa Calm   7.0 mph /  11.3 km/h 65 % 0.00 in /  0 mm
19:02 57.7 °F /  14.3 °C 46.0 °F /  7.8 °C 30.09 in /  1018.8 hPa NW 1.0 mph /  1.6 km/h 7.0 mph /  11.3 km/h 65 % 0.00 in /  0 mm
19:05 57.6 °F /  14.2 °C 45.9 °F /  7.7 °C 30.09 in /  1018.8 hPa NNW 2.0 mph /  3.2 km/h 7.0 mph /  11.3 km/h 65 % 0.00 in /  0 mm
19:06 57.6 °F /  14.2 °C 45.9 °F /  7.7 °C 30.09 in /  1018.8 hPa NW 1.0 mph /  1.6 km/h 5.0 mph /  8 km/h 65 % 0.00 in /  0 mm
19:07 57.6 °F /  14.2 °C 45.9 °F /  7.7 °C 30.09 in /  1018.8 hPa NW 3.0 mph /  4.8 km/h 5.0 mph /  8 km/h 65 % 0.00 in /  0 mm
19:08 57.4 °F /  14.1 °C 45.7 °F /  7.6 °C 30.09 in /  1018.8 hPa North 2.0 mph /  3.2 km/h 5.0 mph /  8 km/h 65 % 0.00 in /  0 mm
19:09 57.4 °F /  14.1 °C 45.7 °F /  7.6 °C 30.09 in /  1018.8 hPa NW 3.0 mph /  4.8 km/h 5.0 mph /  8 km/h 65 % 0.00 in /  0 mm
19:11 57.4 °F /  14.1 °C 45.7 °F /  7.6 °C 30.09 in /  1018.8 hPa NW 3.0 mph /  4.8 km/h 5.0 mph /  8 km/h 65 % 0.00 in /  0 mm
19:12 57.4 °F /  14.1 °C 45.7 °F /  7.6 °C 30.09 in /  1018.8 hPa WNW 1.0 mph /  1.6 km/h 5.0 mph /  8 km/h 65 % 0.00 in /  0 mm
19:14 57.2 °F /  14 °C 45.9 °F /  7.7 °C 30.09 in /  1018.8 hPa Calm   5.0 mph /  8 km/h 66 % 0.00 in /  0 mm
19:15 57.2 °F /  14 °C 45.9 °F /  7.7 °C 30.09 in /  1018.8 hPa North 2.0 mph /  3.2 km/h 5.0 mph /  8 km/h 66 % 0.00 in /  0 mm
19:17 57.0 °F /  13.9 °C 45.9 °F /  7.7 °C 30.09 in /  1018.8 hPa NW 3.0 mph /  4.8 km/h 5.0 mph /  8 km/h 66 % 0.00 in /  0 mm
19:18 57.0 °F /  13.9 °C 45.9 °F /  7.7 °C 30.09 in /  1018.8 hPa WNW 1.0 mph /  1.6 km/h 5.0 mph /  8 km/h 66 % 0.00 in /  0 mm
19:19 57.0 °F /  13.9 °C 45.9 °F /  7.7 °C 30.09 in /  1018.8 hPa NNW 1.0 mph /  1.6 km/h 5.0 mph /  8 km/h 66 % 0.00 in /  0 mm
19:20 57.0 °F /  13.9 °C 45.9 °F /  7.7 °C 30.09 in /  1018.8 hPa NNW 2.0 mph /  3.2 km/h 4.0 mph /  6.4 km/h 66 % 0.00 in /  0 mm
19:21 57.0 °F /  13.9 °C 45.9 °F /  7.7 °C 30.09 in /  1018.8 hPa NW 2.0 mph /  3.2 km/h 4.0 mph /  6.4 km/h 66 % 0.00 in /  0 mm
19:26 56.8 °F /  13.8 °C 45.7 °F /  7.6 °C 30.09 in /  1018.8 hPa NW 1.0 mph /  1.6 km/h 4.0 mph /  6.4 km/h 66 % 0.00 in /  0 mm
19:29 56.7 °F /  13.7 °C 45.5 °F /  7.5 °C 30.09 in /  1018.8 hPa Calm   4.0 mph /  6.4 km/h 66 % 0.00 in /  0 mm
19:30 56.7 °F /  13.7 °C 45.5 °F /  7.5 °C 30.09 in /  1018.8 hPa NNW 1.0 mph /  1.6 km/h 4.0 mph /  6.4 km/h 66 % 0.00 in /  0 mm
19:31 56.7 °F /  13.7 °C 45.5 °F /  7.5 °C 30.10 in /  1019.2 hPa NW 2.0 mph /  3.2 km/h 4.0 mph /  6.4 km/h 66 % 0.00 in /  0 mm
19:33 56.7 °F /  13.7 °C 45.9 °F /  7.7 °C 30.10 in /  1019.2 hPa NW 2.0 mph /  3.2 km/h 4.0 mph /  6.4 km/h 67 % 0.00 in /  0 mm
19:34 56.7 °F /  13.7 °C 45.9 °F /  7.7 °C 30.09 in /  1018.8 hPa West 3.0 mph /  4.8 km/h 4.0 mph /  6.4 km/h 67 % 0.00 in /  0 mm
19:40 56.5 °F /  13.6 °C 45.7 °F /  7.6 °C 30.10 in /  1019.2 hPa Calm   4.0 mph /  6.4 km/h 67 % 0.00 in /  0 mm
19:45 56.1 °F /  13.4 °C 45.7 °F /  7.6 °C 30.10 in /  1019.2 hPa NW 1.0 mph /  1.6 km/h 4.0 mph /  6.4 km/h 68 % 0.00 in /  0 mm
19:50 55.9 °F /  13.3 °C 45.5 °F /  7.5 °C 30.10 in /  1019.2 hPa Calm   4.0 mph /  6.4 km/h 68 % 0.00 in /  0 mm
19:51 55.8 °F /  13.2 °C 45.3 °F /  7.4 °C 30.10 in /  1019.2 hPa Calm   2.0 mph /  3.2 km/h 68 % 0.00 in /  0 mm
19:52 55.8 °F /  13.2 °C 45.3 °F /  7.4 °C 30.10 in /  1019.2 hPa Calm   2.0 mph /  3.2 km/h 68 % 0.00 in /  0 mm
19:54 55.6 °F /  13.1 °C 45.1 °F /  7.3 °C 30.10 in /  1019.2 hPa Calm   2.0 mph /  3.2 km/h 68 % 0.00 in /  0 mm
19:56 55.6 °F /  13.1 °C 45.5 °F /  7.5 °C 30.10 in /  1019.2 hPa NNW 1.0 mph /  1.6 km/h 2.0 mph /  3.2 km/h 69 % 0.00 in /  0 mm
19:59 55.2 °F /  12.9 °C 45.1 °F /  7.3 °C 30.10 in /  1019.2 hPa Calm   2.0 mph /  3.2 km/h 69 % 0.00 in /  0 mm
20:01 55.0 °F /  12.8 °C 45.1 °F /  7.3 °C 30.10 in /  1019.2 hPa Calm   1.0 mph /  1.6 km/h 69 % 0.00 in /  0 mm
20:06 54.7 °F /  12.6 °C 45.1 °F /  7.3 °C 30.10 in /  1019.2 hPa Calm   1.0 mph /  1.6 km/h 70 % 0.00 in /  0 mm
20:09 54.3 °F /  12.4 °C 44.8 °F /  7.1 °C 30.10 in /  1019.2 hPa Calm   1.0 mph /  1.6 km/h 70 % 0.00 in /  0 mm
20:10 54.3 °F /  12.4 °C 45.1 °F /  7.3 °C 30.10 in /  1019.2 hPa Calm   1.0 mph /  1.6 km/h 71 % 0.00 in /  0 mm
20:11 54.1 °F /  12.3 °C 45.0 °F /  7.2 °C 30.10 in /  1019.2 hPa Calm   1.0 mph /  1.6 km/h 71 % 0.00 in /  0 mm
20:14 54.0 °F /  12.2 °C 44.8 °F /  7.1 °C 30.10 in /  1019.2 hPa Calm   1.0 mph /  1.6 km/h 71 % 0.00 in /  0 mm
20:15 54.0 °F /  12.2 °C 44.8 °F /  7.1 °C 30.10 in /  1019.2 hPa Calm   1.0 mph /  1.6 km/h 71 % 0.00 in /  0 mm
20:20 53.4 °F /  11.9 °C 44.6 °F /  7 °C 30.11 in /  1019.5 hPa Calm   1.0 mph /  1.6 km/h 72 % 0.00 in /  0 mm
20:22 53.2 °F /  11.8 °C 44.8 °F /  7.1 °C 30.11 in /  1019.5 hPa Calm   1.0 mph /  1.6 km/h 73 % 0.00 in /  0 mm
20:23 53.2 °F /  11.8 °C 44.8 °F /  7.1 °C 30.11 in /  1019.5 hPa Calm   1.0 mph /  1.6 km/h 73 % 0.00 in /  0 mm
20:25 53.1 °F /  11.7 °C 44.6 °F /  7 °C 30.11 in /  1019.5 hPa Calm   1.0 mph /  1.6 km/h 73 % 0.00 in /  0 mm
20:26 52.9 °F /  11.6 °C 44.4 °F /  6.9 °C 30.10 in /  1019.2 hPa Calm   1.0 mph /  1.6 km/h 73 % 0.00 in /  0 mm
20:27 52.9 °F /  11.6 °C 44.4 °F /  6.9 °C 30.10 in /  1019.2 hPa Calm   1.0 mph /  1.6 km/h 73 % 0.00 in /  0 mm
20:28 52.9 °F /  11.6 °C 44.4 °F /  6.9 °C 30.11 in /  1019.5 hPa Calm   1.0 mph /  1.6 km/h 73 % 0.00 in /  0 mm
20:29 52.5 °F /  11.4 °C 44.1 °F /  6.7 °C 30.11 in /  1019.5 hPa Calm   1.0 mph /  1.6 km/h 73 % 0.00 in /  0 mm
20:30 52.3 °F /  11.3 °C 43.9 °F /  6.6 °C 30.11 in /  1019.5 hPa Calm   1.0 mph /  1.6 km/h 73 % 0.00 in /  0 mm
20:31 52.3 °F /  11.3 °C 43.9 °F /  6.6 °C 30.11 in /  1019.5 hPa Calm   1.0 mph /  1.6 km/h 73 % 0.00 in /  0 mm
20:32 52.2 °F /  11.2 °C 44.1 °F /  6.7 °C 30.11 in /  1019.5 hPa Calm   1.0 mph /  1.6 km/h 74 % 0.00 in /  0 mm
20:33 52.2 °F /  11.2 °C 44.1 °F /  6.7 °C 30.11 in /  1019.5 hPa Calm   1.0 mph /  1.6 km/h 74 % 0.00 in /  0 mm
20:35 52.0 °F /  11.1 °C 44.2 °F /  6.8 °C 30.11 in /  1019.5 hPa Calm   1.0 mph /  1.6 km/h 75 % 0.00 in /  0 mm
20:36 52.0 °F /  11.1 °C 44.2 °F /  6.8 °C 30.11 in /  1019.5 hPa Calm   1.0 mph /  1.6 km/h 75 % 0.00 in /  0 mm
20:37 51.8 °F /  11 °C 44.4 °F /  6.9 °C 30.11 in /  1019.5 hPa Calm   1.0 mph /  1.6 km/h 76 % 0.00 in /  0 mm
20:38 51.8 °F /  11 °C 44.4 °F /  6.9 °C 30.11 in /  1019.5 hPa Calm   1.0 mph /  1.6 km/h 76 % 0.00 in /  0 mm
20:39 51.6 °F /  10.9 °C 44.2 °F /  6.8 °C 30.11 in /  1019.5 hPa Calm   1.0 mph /  1.6 km/h 76 % 0.00 in /  0 mm
20:41 51.6 °F /  10.9 °C 44.2 °F /  6.8 °C 30.11 in /  1019.5 hPa Calm   1.0 mph /  1.6 km/h 76 % 0.00 in /  0 mm
20:48 51.1 °F /  10.6 °C 44.1 °F /  6.7 °C 30.11 in /  1019.5 hPa Calm   1.0 mph /  1.6 km/h 77 % 0.00 in /  0 mm
20:52 50.7 °F /  10.4 °C 43.7 °F /  6.5 °C 30.11 in /  1019.5 hPa Calm   1.0 mph /  1.6 km/h 77 % 0.00 in /  0 mm
20:53 50.5 °F /  10.3 °C 43.5 °F /  6.4 °C 30.11 in /  1019.5 hPa Calm   1.0 mph /  1.6 km/h 77 % 0.00 in /  0 mm
20:54 50.5 °F /  10.3 °C 43.5 °F /  6.4 °C 30.11 in /  1019.5 hPa Calm   1.0 mph /  1.6 km/h 77 % 0.00 in /  0 mm
20:55 50.5 °F /  10.3 °C 43.9 °F /  6.6 °C 30.11 in /  1019.5 hPa Calm   1.0 mph /  1.6 km/h 78 % 0.00 in /  0 mm
20:56 50.4 °F /  10.2 °C 43.7 °F /  6.5 °C 30.11 in /  1019.5 hPa Calm   1.0 mph /  1.6 km/h 78 % 0.00 in /  0 mm
20:57 50.4 °F /  10.2 °C 43.7 °F /  6.5 °C 30.11 in /  1019.5 hPa Calm   1.0 mph /  1.6 km/h 78 % 0.00 in /  0 mm
20:58 50.4 °F /  10.2 °C 43.7 °F /  6.5 °C 30.11 in /  1019.5 hPa Calm   1.0 mph /  1.6 km/h 78 % 0.00 in /  0 mm
20:59 50.2 °F /  10.1 °C 43.9 °F /  6.6 °C 30.11 in /  1019.5 hPa Calm   1.0 mph /  1.6 km/h 79 % 0.00 in /  0 mm
21:00 50.2 °F /  10.1 °C 43.9 °F /  6.6 °C 30.11 in /  1019.5 hPa Calm   1.0 mph /  1.6 km/h 79 % 0.00 in /  0 mm
21:01 49.8 °F /  9.9 °C 43.5 °F /  6.4 °C 30.11 in /  1019.5 hPa Calm   1.0 mph /  1.6 km/h 79 % 0.00 in /  0 mm
21:02 49.8 °F /  9.9 °C 43.5 °F /  6.4 °C 30.11 in /  1019.5 hPa Calm   1.0 mph /  1.6 km/h 79 % 0.00 in /  0 mm
21:03 49.8 °F /  9.9 °C 43.5 °F /  6.4 °C 30.11 in /  1019.5 hPa Calm   1.0 mph /  1.6 km/h 79 % 0.00 in /  0 mm
21:05 49.6 °F /  9.8 °C 43.7 °F /  6.5 °C 30.12 in /  1019.9 hPa Calm   1.0 mph /  1.6 km/h 80 % 0.00 in /  0 mm
21:06 49.6 °F /  9.8 °C 43.7 °F /  6.5 °C 30.12 in /  1019.9 hPa Calm   1.0 mph /  1.6 km/h 80 % 0.00 in /  0 mm
21:07 49.5 °F /  9.7 °C 43.5 °F /  6.4 °C 30.12 in /  1019.9 hPa Calm   1.0 mph /  1.6 km/h 80 % 0.00 in /  0 mm
21:09 49.5 °F /  9.7 °C 43.9 °F /  6.6 °C 30.12 in /  1019.9 hPa ENE 1.0 mph /  1.6 km/h 1.0 mph /  1.6 km/h 81 % 0.00 in /  0 mm
21:12 49.5 °F /  9.7 °C 44.2 °F /  6.8 °C 30.12 in /  1019.9 hPa Calm   2.0 mph /  3.2 km/h 82 % 0.00 in /  0 mm
21:13 49.6 °F /  9.8 °C 44.4 °F /  6.9 °C 30.12 in /  1019.9 hPa Calm   2.0 mph /  3.2 km/h 82 % 0.00 in /  0 mm
21:16 49.6 °F /  9.8 °C 44.4 °F /  6.9 °C 30.12 in /  1019.9 hPa Calm   2.0 mph /  3.2 km/h 82 % 0.00 in /  0 mm
21:17 49.8 °F /  9.9 °C 44.6 °F /  7 °C 30.12 in /  1019.9 hPa Calm   2.0 mph /  3.2 km/h 82 % 0.00 in /  0 mm
21:18 49.8 °F /  9.9 °C 44.6 °F /  7 °C 30.12 in /  1019.9 hPa Calm   2.0 mph /  3.2 km/h 82 % 0.00 in /  0 mm
21:21 49.8 °F /  9.9 °C 44.6 °F /  7 °C 30.12 in /  1019.9 hPa Calm   2.0 mph /  3.2 km/h 82 % 0.00 in /  0 mm
21:22 49.8 °F /  9.9 °C 44.6 °F /  7 °C 30.12 in /  1019.9 hPa Calm   2.0 mph /  3.2 km/h 82 % 0.00 in /  0 mm
21:23 49.8 °F /  9.9 °C 44.6 °F /  7 °C 30.12 in /  1019.9 hPa Calm   2.0 mph /  3.2 km/h 82 % 0.00 in /  0 mm
21:24 49.8 °F /  9.9 °C 44.6 °F /  7 °C 30.12 in /  1019.9 hPa Calm   2.0 mph /  3.2 km/h 82 % 0.00 in /  0 mm
21:27 49.8 °F /  9.9 °C 44.2 °F /  6.8 °C 30.12 in /  1019.9 hPa Calm   2.0 mph /  3.2 km/h 81 % 0.00 in /  0 mm
21:28 49.8 °F /  9.9 °C 44.2 °F /  6.8 °C 30.12 in /  1019.9 hPa Calm   2.0 mph /  3.2 km/h 81 % 0.00 in /  0 mm
21:29 49.8 °F /  9.9 °C 44.2 °F /  6.8 °C 30.12 in /  1019.9 hPa Calm   2.0 mph /  3.2 km/h 81 % 0.00 in /  0 mm
21:30 49.8 °F /  9.9 °C 44.2 °F /  6.8 °C 30.13 in /  1020.2 hPa Calm   1.0 mph /  1.6 km/h 81 % 0.00 in /  0 mm
21:31 49.6 °F /  9.8 °C 44.1 °F /  6.7 °C 30.13 in /  1020.2 hPa Calm   1.0 mph /  1.6 km/h 81 % 0.00 in /  0 mm
21:32 49.6 °F /  9.8 °C 44.4 °F /  6.9 °C 30.13 in /  1020.2 hPa Calm   1.0 mph /  1.6 km/h 82 % 0.00 in /  0 mm
21:33 49.6 °F /  9.8 °C 44.4 °F /  6.9 °C 30.13 in /  1020.2 hPa Calm   1.0 mph /  1.6 km/h 82 % 0.00 in /  0 mm
21:34 49.6 °F /  9.8 °C 44.4 °F /  6.9 °C 30.13 in /  1020.2 hPa Calm   1.0 mph /  1.6 km/h 82 % 0.00 in /  0 mm
21:35 49.6 °F /  9.8 °C 44.4 °F /  6.9 °C 30.13 in /  1020.2 hPa Calm   1.0 mph /  1.6 km/h 82 % 0.00 in /  0 mm
21:36 49.5 °F /  9.7 °C 44.2 °F /  6.8 °C 30.13 in /  1020.2 hPa Calm   1.0 mph /  1.6 km/h 82 % 0.00 in /  0 mm
21:38 49.5 °F /  9.7 °C 44.2 °F /  6.8 °C 30.13 in /  1020.2 hPa Calm   1.0 mph /  1.6 km/h 82 % 0.00 in /  0 mm
21:39 49.3 °F /  9.6 °C 44.1 °F /  6.7 °C 30.13 in /  1020.2 hPa Calm   1.0 mph /  1.6 km/h 82 % 0.00 in /  0 mm
21:40 49.3 °F /  9.6 °C 44.1 °F /  6.7 °C 30.13 in /  1020.2 hPa Calm   1.0 mph /  1.6 km/h 82 % 0.00 in /  0 mm
21:41 49.3 °F /  9.6 °C 44.1 °F /  6.7 °C 30.13 in /  1020.2 hPa Calm   1.0 mph /  1.6 km/h 82 % 0.00 in /  0 mm
21:42 49.1 °F /  9.5 °C 43.9 °F /  6.6 °C 30.13 in /  1020.2 hPa Calm   1.0 mph /  1.6 km/h 82 % 0.00 in /  0 mm
21:44 49.1 °F /  9.5 °C 43.9 °F /  6.6 °C 30.13 in /  1020.2 hPa Calm   1.0 mph /  1.6 km/h 82 % 0.00 in /  0 mm
21:45 48.9 °F /  9.4 °C 44.1 °F /  6.7 °C 30.13 in /  1020.2 hPa Calm   1.0 mph /  1.6 km/h 83 % 0.00 in /  0 mm
21:47 48.9 °F /  9.4 °C 44.1 °F /  6.7 °C 30.13 in /  1020.2 hPa Calm   1.0 mph /  1.6 km/h 83 % 0.00 in /  0 mm
21:48 48.9 °F /  9.4 °C 44.1 °F /  6.7 °C 30.14 in /  1020.5 hPa Calm   1.0 mph /  1.6 km/h 83 % 0.00 in /  0 mm
21:50 48.7 °F /  9.3 °C 43.9 °F /  6.6 °C 30.14 in /  1020.5 hPa Calm   1.0 mph /  1.6 km/h 83 % 0.00 in /  0 mm
21:53 48.7 °F /  9.3 °C 43.9 °F /  6.6 °C 30.14 in /  1020.5 hPa Calm   1.0 mph /  1.6 km/h 83 % 0.00 in /  0 mm
21:55 48.7 °F /  9.3 °C 44.1 °F /  6.7 °C 30.13 in /  1020.2 hPa Calm   1.0 mph /  1.6 km/h 84 % 0.00 in /  0 mm
21:56 48.6 °F /  9.2 °C 43.9 °F /  6.6 °C 30.13 in /  1020.2 hPa Calm   1.0 mph /  1.6 km/h 84 % 0.00 in /  0 mm
21:57 48.6 °F /  9.2 °C 43.9 °F /  6.6 °C 30.14 in /  1020.5 hPa Calm   1.0 mph /  1.6 km/h 84 % 0.00 in /  0 mm
21:58 48.6 °F /  9.2 °C 43.9 °F /  6.6 °C 30.14 in /  1020.5 hPa Calm   1.0 mph /  1.6 km/h 84 % 0.00 in /  0 mm
21:59 48.6 °F /  9.2 °C 43.9 °F /  6.6 °C 30.13 in /  1020.2 hPa Calm   1.0 mph /  1.6 km/h 84 % 0.00 in /  0 mm
22:00 48.6 °F /  9.2 °C 43.9 °F /  6.6 °C 30.13 in /  1020.2 hPa Calm   1.0 mph /  1.6 km/h 84 % 0.00 in /  0 mm
22:02 48.6 °F /  9.2 °C 44.2 °F /  6.8 °C 30.14 in /  1020.5 hPa Calm   1.0 mph /  1.6 km/h 85 % 0.00 in /  0 mm
22:03 48.6 °F /  9.2 °C 44.2 °F /  6.8 °C 30.14 in /  1020.5 hPa NE 1.0 mph /  1.6 km/h 1.0 mph /  1.6 km/h 85 % 0.00 in /  0 mm
22:08 48.7 °F /  9.3 °C 44.4 °F /  6.9 °C 30.14 in /  1020.5 hPa Calm   2.0 mph /  3.2 km/h 85 % 0.00 in /  0 mm
22:09 48.7 °F /  9.3 °C 44.4 °F /  6.9 °C 30.14 in /  1020.5 hPa Calm   2.0 mph /  3.2 km/h 85 % 0.00 in /  0 mm
22:10 48.7 °F /  9.3 °C 44.4 °F /  6.9 °C 30.14 in /  1020.5 hPa Calm   2.0 mph /  3.2 km/h 85 % 0.00 in /  0 mm
22:11 48.7 °F /  9.3 °C 44.8 °F /  7.1 °C 30.13 in /  1020.2 hPa Calm   2.0 mph /  3.2 km/h 86 % 0.00 in /  0 mm
22:12 48.7 °F /  9.3 °C 44.8 °F /  7.1 °C 30.13 in /  1020.2 hPa Calm   2.0 mph /  3.2 km/h 86 % 0.00 in /  0 mm
22:13 48.7 °F /  9.3 °C 44.8 °F /  7.1 °C 30.14 in /  1020.5 hPa Calm   2.0 mph /  3.2 km/h 86 % 0.00 in /  0 mm
22:17 48.7 °F /  9.3 °C 44.8 °F /  7.1 °C 30.14 in /  1020.5 hPa Calm   2.0 mph /  3.2 km/h 86 % 0.00 in /  0 mm
22:18 48.7 °F /  9.3 °C 44.8 °F /  7.1 °C 30.14 in /  1020.5 hPa Calm   2.0 mph /  3.2 km/h 86 % 0.00 in /  0 mm
22:19 48.7 °F /  9.3 °C 44.8 °F /  7.1 °C 30.14 in /  1020.5 hPa Calm   2.0 mph /  3.2 km/h 86 % 0.00 in /  0 mm
22:20 48.7 °F /  9.3 °C 44.8 °F /  7.1 °C 30.14 in /  1020.5 hPa Calm   2.0 mph /  3.2 km/h 86 % 0.00 in /  0 mm
22:23 48.6 °F /  9.2 °C 44.6 °F /  7 °C 30.14 in /  1020.5 hPa Calm   1.0 mph /  1.6 km/h 86 % 0.00 in /  0 mm
22:24 48.6 °F /  9.2 °C 44.6 °F /  7 °C 30.14 in /  1020.5 hPa Calm   1.0 mph /  1.6 km/h 86 % 0.00 in /  0 mm
22:26 48.6 °F /  9.2 °C 44.6 °F /  7 °C 30.14 in /  1020.5 hPa Calm   1.0 mph /  1.6 km/h 86 % 0.00 in /  0 mm
22:27 48.6 °F /  9.2 °C 44.6 °F /  7 °C 30.14 in /  1020.5 hPa Calm   1.0 mph /  1.6 km/h 86 % 0.00 in /  0 mm
22:29 48.4 °F /  9.1 °C 44.4 °F /  6.9 °C 30.14 in /  1020.5 hPa Calm   1.0 mph /  1.6 km/h 86 % 0.00 in /  0 mm
22:30 48.4 °F /  9.1 °C 44.4 °F /  6.9 °C 30.14 in /  1020.5 hPa Calm   1.0 mph /  1.6 km/h 86 % 0.00 in /  0 mm
22:31 48.2 °F /  9 °C 44.2 °F /  6.8 °C 30.14 in /  1020.5 hPa Calm   1.0 mph /  1.6 km/h 86 % 0.00 in /  0 mm
22:32 48.0 °F /  8.9 °C 44.1 °F /  6.7 °C 30.14 in /  1020.5 hPa Calm   1.0 mph /  1.6 km/h 86 % 0.00 in /  0 mm
22:35 47.8 °F /  8.8 °C 43.9 °F /  6.6 °C 30.14 in /  1020.5 hPa Calm     86 % 0.00 in /  0 mm
22:37 47.7 °F /  8.7 °C 43.7 °F /  6.5 °C 30.14 in /  1020.5 hPa Calm     86 % 0.00 in /  0 mm
22:38 47.7 °F /  8.7 °C 44.1 °F /  6.7 °C 30.14 in /  1020.5 hPa Calm     87 % 0.00 in /  0 mm
22:39 47.5 °F /  8.6 °C 43.9 °F /  6.6 °C 30.14 in /  1020.5 hPa Calm     87 % 0.00 in /  0 mm
22:40 47.5 °F /  8.6 °C 43.9 °F /  6.6 °C 30.14 in /  1020.5 hPa Calm     87 % 0.00 in /  0 mm
22:43 47.1 °F /  8.4 °C 43.5 °F /  6.4 °C 30.14 in /  1020.5 hPa Calm     87 % 0.00 in /  0 mm
22:46 46.8 °F /  8.2 °C 43.2 °F /  6.2 °C 30.14 in /  1020.5 hPa Calm     87 % 0.00 in /  0 mm
22:47 46.8 °F /  8.2 °C 43.2 °F /  6.2 °C 30.14 in /  1020.5 hPa Calm     87 % 0.00 in /  0 mm
22:48 46.6 °F /  8.1 °C 43.0 °F /  6.1 °C 30.14 in /  1020.5 hPa Calm     87 % 0.00 in /  0 mm
22:49 46.6 °F /  8.1 °C 43.0 °F /  6.1 °C 30.14 in /  1020.5 hPa Calm     87 % 0.00 in /  0 mm
22:50 46.4 °F /  8 °C 42.8 °F /  6 °C 30.14 in /  1020.5 hPa Calm     87 % 0.00 in /  0 mm
22:51 46.0 °F /  7.8 °C 42.4 °F /  5.8 °C 30.14 in /  1020.5 hPa Calm     87 % 0.00 in /  0 mm
22:52 46.0 °F /  7.8 °C 42.4 °F /  5.8 °C 30.14 in /  1020.5 hPa Calm     87 % 0.00 in /  0 mm
22:54 45.9 °F /  7.7 °C 42.3 °F /  5.7 °C 30.14 in /  1020.5 hPa Calm     87 % 0.00 in /  0 mm
22:56 45.7 °F /  7.6 °C 42.3 °F /  5.7 °C 30.14 in /  1020.5 hPa Calm     88 % 0.00 in /  0 mm
22:57 45.5 °F /  7.5 °C 42.1 °F /  5.6 °C 30.14 in /  1020.5 hPa Calm     88 % 0.00 in /  0 mm
22:58 45.5 °F /  7.5 °C 42.1 °F /  5.6 °C 30.14 in /  1020.5 hPa Calm     88 % 0.00 in /  0 mm
23:00 45.3 °F /  7.4 °C 41.9 °F /  5.5 °C 30.14 in /  1020.5 hPa Calm     88 % 0.00 in /  0 mm
23:01 45.1 °F /  7.3 °C 41.7 °F /  5.4 °C 30.14 in /  1020.5 hPa Calm     88 % 0.00 in /  0 mm
23:02 45.1 °F /  7.3 °C 41.7 °F /  5.4 °C 30.14 in /  1020.5 hPa Calm     88 % 0.00 in /  0 mm
23:04 45.0 °F /  7.2 °C 41.5 °F /  5.3 °C 30.14 in /  1020.5 hPa Calm     88 % 0.00 in /  0 mm
23:07 44.8 °F /  7.1 °C 41.7 °F /  5.4 °C 30.14 in /  1020.5 hPa Calm     89 % 0.00 in /  0 mm
23:09 44.6 °F /  7 °C 41.5 °F /  5.3 °C 30.14 in /  1020.5 hPa Calm     89 % 0.00 in /  0 mm
23:10 44.8 °F /  7.1 °C 41.7 °F /  5.4 °C 30.14 in /  1020.5 hPa Calm     89 % 0.00 in /  0 mm
23:11 44.8 °F /  7.1 °C 41.7 °F /  5.4 °C 30.14 in /  1020.5 hPa Calm     89 % 0.00 in /  0 mm
23:12 44.8 °F /  7.1 °C 41.7 °F /  5.4 °C 30.14 in /  1020.5 hPa Calm     89 % 0.00 in /  0 mm
23:13 44.8 °F /  7.1 °C 41.7 °F /  5.4 °C 30.14 in /  1020.5 hPa Calm     89 % 0.00 in /  0 mm
23:14 44.8 °F /  7.1 °C 42.1 °F /  5.6 °C 30.14 in /  1020.5 hPa Calm     90 % 0.00 in /  0 mm
23:18 44.6 °F /  7 °C 41.9 °F /  5.5 °C 30.14 in /  1020.5 hPa Calm     90 % 0.00 in /  0 mm
23:19 44.6 °F /  7 °C 41.9 °F /  5.5 °C 30.14 in /  1020.5 hPa Calm     90 % 0.00 in /  0 mm
23:20 44.4 °F /  6.9 °C 41.7 °F /  5.4 °C 30.14 in /  1020.5 hPa Calm     90 % 0.00 in /  0 mm
23:21 44.4 °F /  6.9 °C 41.9 °F /  5.5 °C 30.14 in /  1020.5 hPa Calm     91 % 0.00 in /  0 mm
23:23 44.4 °F /  6.9 °C 41.9 °F /  5.5 °C 30.14 in /  1020.5 hPa Calm     91 % 0.00 in /  0 mm
23:24 44.4 °F /  6.9 °C 41.9 °F /  5.5 °C 30.14 in /  1020.5 hPa Calm     91 % 0.00 in /  0 mm
23:26 44.4 °F /  6.9 °C 41.9 °F /  5.5 °C 30.14 in /  1020.5 hPa Calm     91 % 0.00 in /  0 mm
23:27 44.4 °F /  6.9 °C 41.9 °F /  5.5 °C 30.14 in /  1020.5 hPa Calm     91 % 0.00 in /  0 mm
23:29 44.4 °F /  6.9 °C 41.9 °F /  5.5 °C 30.14 in /  1020.5 hPa Calm     91 % 0.00 in /  0 mm
23:31 44.4 °F /  6.9 °C 41.9 °F /  5.5 °C 30.14 in /  1020.5 hPa Calm     91 % 0.00 in /  0 mm
23:32 44.2 °F /  6.8 °C 41.7 °F /  5.4 °C 30.14 in /  1020.5 hPa Calm     91 % 0.00 in /  0 mm
23:34 44.2 °F /  6.8 °C 42.1 °F /  5.6 °C 30.14 in /  1020.5 hPa Calm     92 % 0.00 in /  0 mm
23:35 44.2 °F /  6.8 °C 42.1 °F /  5.6 °C 30.14 in /  1020.5 hPa Calm     92 % 0.00 in /  0 mm
23:36 44.2 °F /  6.8 °C 42.1 °F /  5.6 °C 30.14 in /  1020.5 hPa Calm     92 % 0.00 in /  0 mm
23:37 44.1 °F /  6.7 °C 41.9 °F /  5.5 °C 30.14 in /  1020.5 hPa Calm     92 % 0.00 in /  0 mm
23:41 43.9 °F /  6.6 °C 41.4 °F /  5.2 °C 30.14 in /  1020.5 hPa Calm     91 % 0.00 in /  0 mm
23:42 43.9 °F /  6.6 °C 41.7 °F /  5.4 °C 30.14 in /  1020.5 hPa Calm     92 % 0.00 in /  0 mm
23:43 43.7 °F /  6.5 °C 41.5 °F /  5.3 °C 30.14 in /  1020.5 hPa Calm     92 % 0.00 in /  0 mm
23:44 43.7 °F /  6.5 °C 41.5 °F /  5.3 °C 30.14 in /  1020.5 hPa Calm     92 % 0.00 in /  0 mm
23:46 43.9 °F /  6.6 °C 41.7 °F /  5.4 °C 30.14 in /  1020.5 hPa Calm   1.0 mph /  1.6 km/h 92 % 0.00 in /  0 mm
23:47 43.9 °F /  6.6 °C 41.7 °F /  5.4 °C 30.14 in /  1020.5 hPa Calm   1.0 mph /  1.6 km/h 92 % 0.00 in /  0 mm
23:48 43.9 °F /  6.6 °C 41.7 °F /  5.4 °C 30.14 in /  1020.5 hPa Calm   1.0 mph /  1.6 km/h 92 % 0.00 in /  0 mm
23:51 43.9 °F /  6.6 °C 41.9 °F /  5.5 °C 30.14 in /  1020.5 hPa Calm   1.0 mph /  1.6 km/h 93 % 0.00 in /  0 mm
23:52 43.9 °F /  6.6 °C 41.9 °F /  5.5 °C 30.14 in /  1020.5 hPa Calm   1.0 mph /  1.6 km/h 93 % 0.00 in /  0 mm
23:53 43.9 °F /  6.6 °C 41.9 °F /  5.5 °C 30.14 in /  1020.5 hPa Calm   1.0 mph /  1.6 km/h 93 % 0.00 in /  0 mm
23:55 43.7 °F /  6.5 °C 41.7 °F /  5.4 °C 30.14 in /  1020.5 hPa Calm   1.0 mph /  1.6 km/h 93 % 0.00 in /  0 mm
23:57 43.7 °F /  6.5 °C 41.7 °F /  5.4 °C 30.14 in /  1020.5 hPa Calm   1.0 mph /  1.6 km/h 93 % 0.00 in /  0 mm
23:58 43.7 °F /  6.5 °C 41.7 °F /  5.4 °C 30.14 in /  1020.5 hPa Calm   1.0 mph /  1.6 km/h 93 % 0.00 in /  0 mm
Spring, Texas: Villages of Bridgestone
Compliments of Weather Underground - 3.75 mb

Script developed by  Jim McMurry - jmcmurry@mwt.net Adapted for the template by  Wim van der Kuil - Leuven-Template.eu

You find our weather info also at:

UK Metoffice

WeatherCloud

Weather Underground

Mid-South Weather Network

AWEKAS

Citizen Weather Observer Program (CWOP)

HAMweather, WeatherForYou, PWS Weather

Equipment we use:

Weather-station
Davis Vantage Vue

Weather-program
Meteohub

Weather-server
Debian 7.9 x86 (Guest)

Provider
DreamHost

Davis Vantage Vue

Meteohub

Debian 7.9 x86 (Guest)

DreamHost